Time;durP1;ratioP1;P1;durP2;ratioP2;P2;SDS_P1;SDS_P2;PMS_P1;PMS_P2;Temp;Humidity;BMP_temperature;BMP_pressure;BME280_temperature;BME280_humidity;BME280_pressure;Samples;Min_cycle;Max_cycle;Signal;HPM_P1;HPM_P2
2021/07/04 00:04:50;;;;;;;;;;;;;;;;;;10265290;28;20023;-59
2021/07/04 00:09:47;;;;;;;;;;;;;;;;;;10261626;28;19913;-58
2021/07/04 00:14:45;;;;;;;;;;;;;;;;;;10268836;28;19909;-57
2021/07/04 00:19:42;;;;;;;;;;;;;;;;;;10282221;28;20349;-59
2021/07/04 00:24:39;;;;;;;;;;;;;;;;;;10254956;28;19910;-59
2021/07/04 00:29:37;;;;;;;;;;;;;;;;;;10278057;28;20284;-60
2021/07/04 00:34:34;;;;;;;;;;;;;;;;;;10271247;22;20952;-68
2021/07/04 00:39:31;;;;;;;;;;;;;;;;;;10294163;28;20331;-67
2021/07/04 00:44:29;;;;;;;;;;;;;;;;;;10314159;28;19905;-66
2021/07/04 00:49:26;;;;;;;;;;;;;;;;;;10251367;28;19905;-66
2021/07/04 00:54:24;;;;;;;;;;;;;;;;;;10274267;28;19920;-66
2021/07/04 00:59:21;;;;;;;;;;;;;;;;;;10289686;28;19944;-67
2021/07/04 01:04:18;;;;;;;;;;;;;;;;;;10284505;28;20008;-67
2021/07/04 01:09:16;;;;;;;;;;;;;;;;;;10275739;28;20299;-67
2021/07/04 01:14:13;;;;;;;;;;;;;;;;;;10286400;28;20017;-66
2021/07/04 01:19:11;;;;;;;;;;;;;;;;;;10282403;28;19967;-66
2021/07/04 01:24:08;;;;;;;;;;;;;;;;;;10295872;28;19917;-65
2021/07/04 01:29:05;;;;;;;;;;;;;;;;;;10273443;28;20051;-65
2021/07/04 01:34:03;;;;;;;;;;;;;;;;;;10287060;28;20254;-65
2021/07/04 01:39:04;;;;;;;;;;;;;;;;;;10290494;28;19920;-66
2021/07/04 01:44:02;;;;;;;;;;;;;;;;;;10274027;28;19975;-66
2021/07/04 01:49:00;;;;;;;;;;;;;;;;;;10278103;28;20060;-66
2021/07/04 01:53:58;;;;;;;;;;;;;;;;;;10281808;28;19917;-65
2021/07/04 01:59:02;;;;;;;;;;;;;;;;;;10269055;28;19948;-66
2021/07/04 02:04:18;;;;;;;;;;;;;;;;;;10297802;28;19912;-66
2021/07/04 02:09:23;;;;;;;;;;;;;;;;;;10266980;28;19967;-66
2021/07/04 02:14:21;;;;;;;;;;;;;;;;;;10275025;28;19917;-66
2021/07/04 02:19:29;;;;;;;;;;;;;;;;;;10277418;28;19920;-66
2021/07/04 02:24:29;;;;;;;;;;;;;;;;;;10286353;28;20224;-65
2021/07/04 02:29:29;;;;;;;;;;;;;;;;;;10278572;28;19914;-66
2021/07/04 02:34:27;;;;;;;;;;;;;;;;;;10272055;28;20584;-67
2021/07/04 02:39:28;;;;;;;;;;;;;;;;;;10264115;28;21025;-65
2021/07/04 02:44:30;;;;;;;;;;;;;;;;;;10268844;28;19917;-66
2021/07/04 02:49:27;;;;;;;;;;;;;;;;;;10280909;28;20817;-68
2021/07/04 02:54:26;;;;;;;;;;;;;;;;;;10251995;28;20431;-65
2021/07/04 02:59:32;;;;;;;;;;;;;;;;;;10251962;28;19924;-65
2021/07/04 03:04:29;;;;;;;;;;;;;;;;;;10256071;28;19913;-66
2021/07/04 03:09:27;;;;;;;;;;;;;;;;;;10275189;28;19932;-66
2021/07/04 03:14:25;;;;;;;;;;;;;;;;;;10263773;28;19924;-65
2021/07/04 03:19:23;;;;;;;;;;;;;;;;;;10246382;28;19996;-65
2021/07/04 03:24:20;;;;;;;;;;;;;;;;;;10268505;28;20434;-66
2021/07/04 03:29:17;;;;;;;;;;;;;;;;;;10304023;28;19955;-68
2021/07/04 03:34:16;;;;;;;;;;;;;;;;;;10254235;28;19917;-66
2021/07/04 03:39:15;;;;;;;;;;;;;;;;;;10272499;28;19924;-66
2021/07/04 03:44:16;;;;;;;;;;;;;;;;;;10262697;28;19924;-66
2021/07/04 03:49:14;;;;;;;;;;;;;;;;;;10245794;28;19913;-66
2021/07/04 03:54:24;;;;;;;;;;;;;;;;;;10277464;28;20418;-66
2021/07/04 03:59:21;;;;;;;;;;;;;;;;;;10284337;28;20039;-65
2021/07/04 04:04:19;;;;;;;;;;;;;;;;;;10285546;28;19944;-65
2021/07/04 04:09:18;;;;;;;;;;;;;;;;;;10299586;28;19913;-66
2021/07/04 04:14:23;;;;;;;;;;;;;;;;;;10285856;28;20401;-65
2021/07/04 04:19:20;;;;;;;;;;;;;;;;;;10303773;28;20331;-63
2021/07/04 04:24:17;;;;;;;;;;;;;;;;;;10285271;28;20018;-66
2021/07/04 04:29:15;;;;;;;;;;;;;;;;;;10285253;28;20008;-64
2021/07/04 04:34:13;;;;;;;;;;;;;;;;;;10285242;28;19962;-67
2021/07/04 04:39:11;;;;;;;;;;;;;;;;;;10261512;28;20355;-66
2021/07/04 04:44:08;;;;;;;;;;;;;;;;;;10244952;28;19920;-66
2021/07/04 04:49:06;;;;;;;;;;;;;;;;;;10241918;28;20118;-67
2021/07/04 04:54:03;;;;;;;;;;;;;;;;;;10258583;28;20031;-65
2021/07/04 04:59:01;;;;;;;;;;;;;;;;;;10260890;28;20481;-67
2021/07/04 05:03:58;;;;;;;;;;;;;;;;;;10300772;28;19940;-66
2021/07/04 05:08:55;;;;;;;;;;;;;;;;;;10296243;28;19952;-67
2021/07/04 05:13:52;;;;;;;;;;;;;;;;;;10253401;28;19920;-66
2021/07/04 05:18:50;;;;;;;;;;;;;;;;;;10300843;28;19984;-67
2021/07/04 05:23:48;;;;;;;;;;;;;;;;;;10282366;28;19913;-65
2021/07/04 05:28:45;;;;;;;;;;;;;;;;;;10282620;28;19978;-66
2021/07/04 05:33:42;;;;;;;;;;;;;;;;;;10300339;28;19940;-66
2021/07/04 05:38:42;;;;;;;;;;;;;;;;;;10299765;28;20426;-66
2021/07/04 05:43:39;;;;;;;;;;;;;;;;;;10294088;28;20015;-67
2021/07/04 05:48:37;;;;;;;;;;;;;;;;;;10275377;28;20020;-67
2021/07/04 05:53:34;;;;;;;;;;;;;;;;;;10269490;28;19921;-67
2021/07/04 05:58:31;;;;;;;;;;;;;;;;;;10286669;28;20007;-65
2021/07/04 06:03:28;;;;;;;;;;;;;;;;;;10273517;28;20355;-66
2021/07/04 06:08:26;;;;;;;;;;;;;;;;;;10283790;28;19974;-66
2021/07/04 06:13:23;;;;;;;;;;;;;;;;;;10288835;28;19963;-67
2021/07/04 06:18:20;;;;;;;;;;;;;;;;;;10285294;28;19913;-69
2021/07/04 06:23:17;;;;;;;;;;;;;;;;;;10278240;28;20397;-66
2021/07/04 06:28:15;;;;;;;;;;;;;;;;;;10263308;28;19928;-66
2021/07/04 06:33:12;;;;;;;;;;;;;;;;;;10259798;28;20012;-66
2021/07/04 06:38:09;;;;;;;;;;;;;;;;;;10271169;28;19921;-67
2021/07/04 06:43:07;;;;;;;;;;;;;;;;;;10276973;28;20231;-67
2021/07/04 06:48:05;;;;;;;;;;;;;;;;;;10262406;28;20290;-66
2021/07/04 06:53:02;;;;;;;;;;;;;;;;;;10283190;28;19923;-66
2021/07/04 06:58:00;;;;;;;;;;;;;;;;;;10283047;28;19913;-64
2021/07/04 07:02:57;;;;;;;;;;;;;;;;;;10273862;28;20381;-67
2021/07/04 07:07:54;;;;;;;;;;;;;;;;;;10274615;28;20008;-67
2021/07/04 07:12:51;;;;;;;;;;;;;;;;;;10278348;28;19917;-66
2021/07/04 07:17:53;;;;;;;;;;;;;;;;;;10267002;28;20290;-67
2021/07/04 07:22:50;;;;;;;;;;;;;;;;;;10274439;28;19916;-68
2021/07/04 07:27:54;;;;;;;;;;;;;;;;;;10288498;28;19913;-66
2021/07/04 07:32:51;;;;;;;;;;;;;;;;;;10277718;28;19916;-67
2021/07/04 07:37:52;;;;;;;;;;;;;;;;;;10282964;28;19925;-66
2021/07/04 07:42:49;;;;;;;;;;;;;;;;;;10272825;28;20322;-67
2021/07/04 07:47:46;;;;;;;;;;;;;;;;;;10273849;28;19917;-67
2021/07/04 07:52:44;;;;;;;;;;;;;;;;;;10261941;28;20235;-69
2021/07/04 07:57:41;;;;;;;;;;;;;;;;;;10287858;28;19917;-66
2021/07/04 08:02:39;;;;;;;;;;;;;;;;;;10257211;28;20011;-70
2021/07/04 08:07:36;;;;;;;;;;;;;;;;;;10257735;28;19925;-68
2021/07/04 08:12:34;;;;;;;;;;;;;;;;;;10260198;28;19949;-68
2021/07/04 08:17:31;;;;;;;;;;;;;;;;;;10276172;28;19983;-66
2021/07/04 08:22:28;;;;;;;;;;;;;;;;;;10272353;28;20493;-67
2021/07/04 08:27:25;;;;;;;;;;;;;;;;;;10284186;28;20295;-66
2021/07/04 08:32:23;;;;;;;;;;;;;;;;;;10287915;28;19917;-68
2021/07/04 08:37:20;;;;;;;;;;;;;;;;;;10292915;28;20433;-69
2021/07/04 08:42:18;;;;;;;;;;;;;;;;;;10287608;28;19932;-68
2021/07/04 08:47:15;;;;;;;;;;;;;;;;;;10275282;28;20281;-68
2021/07/04 08:52:12;;;;;;;;;;;;;;;;;;10268412;28;19994;-67
2021/07/04 08:57:10;;;;;;;;;;;;;;;;;;10273964;28;19917;-67
2021/07/04 09:02:10;;;;;;;;;;;;;;;;;;10274420;28;19917;-67
2021/07/04 09:07:08;;;;;;;;;;;;;;;;;;10292163;28;19936;-67
2021/07/04 09:12:05;;;;;;;;;;;;;;;;;;10286109;28;19928;-68
2021/07/04 09:17:02;;;;;;;;;;;;;;;;;;10293447;28;19917;-67
2021/07/04 09:22:00;;;;;;;;;;;;;;;;;;10287887;28;19967;-68
2021/07/04 09:26:57;;;;;;;;;;;;;;;;;;10283435;28;20015;-67
2021/07/04 09:31:54;;;;;;;;;;;;;;;;;;10267566;28;19924;-68
2021/07/04 09:36:52;;;;;;;;;;;;;;;;;;10292607;28;19937;-67
2021/07/04 09:41:49;;;;;;;;;;;;;;;;;;10264321;28;19999;-67
2021/07/04 09:46:47;;;;;;;;;;;;;;;;;;10284891;28;19913;-66
2021/07/04 09:51:44;;;;;;;;;;;;;;;;;;10263530;28;20023;-68
2021/07/04 09:56:41;;;;;;;;;;;;;;;;;;10283908;28;19920;-66
2021/07/04 10:01:39;;;;;;;;;;;;;;;;;;10283886;28;19918;-68
2021/07/04 10:06:36;;;;;;;;;;;;;;;;;;10266363;28;19913;-67
2021/07/04 10:11:33;;;;;;;;;;;;;;;;;;10293212;28;19942;-67
2021/07/04 10:16:31;;;;;;;;;;;;;;;;;;10281077;28;19917;-66
2021/07/04 10:21:28;;;;;;;;;;;;;;;;;;10275612;28;20000;-67
2021/07/04 10:26:25;;;;;;;;;;;;;;;;;;10284986;28;20234;-64
2021/07/04 10:31:22;;;;;;;;;;;;;;;;;;10271497;28;19917;-68
2021/07/04 10:36:21;;;;;;;;;;;;;;;;;;10280428;28;19931;-66
2021/07/04 10:41:19;;;;;;;;;;;;;;;;;;10257985;28;19920;-67
2021/07/04 10:46:16;;;;;;;;;;;;;;;;;;10270303;28;19913;-68
2021/07/04 10:51:15;;;;;;;;;;;;;;;;;;10287312;28;19947;-67
2021/07/04 10:56:13;;;;;;;;;;;;;;;;;;10287349;28;20185;-67
2021/07/04 11:01:10;;;;;;;;;;;;;;;;;;10277601;28;19925;-67
2021/07/04 11:06:07;;;;;;;;;;;;;;;;;;10290744;28;19922;-67
2021/07/04 11:11:04;;;;;;;;;;;;;;;;;;10270884;28;20420;-66
2021/07/04 11:16:02;;;;;;;;;;;;;;;;;;10284866;28;19913;-68
2021/07/04 11:20:59;;;;;;;;;;;;;;;;;;10287160;28;19937;-67
2021/07/04 11:25:57;;;;;;;;;;;;;;;;;;10272735;28;20363;-68
2021/07/04 11:30:54;;;;;;;;;;;;;;;;;;10292125;28;19916;-68
2021/07/04 11:35:51;;;;;;;;;;;;;;;;;;10270255;28;19992;-67
2021/07/04 11:40:48;;;;;;;;;;;;;;;;;;10301686;28;20011;-69
2021/07/04 11:45:46;;;;;;;;;;;;;;;;;;10263825;28;20385;-66
2021/07/04 11:50:43;;;;;;;;;;;;;;;;;;10260725;28;19913;-66
2021/07/04 11:55:40;;;;;;;;;;;;;;;;;;10296253;28;19913;-65
2021/07/04 12:00:38;;;;;;;;;;;;;;;;;;10290445;28;20044;-68
2021/07/04 12:05:35;;;;;;;;;;;;;;;;;;10275056;28;20337;-67
2021/07/04 12:10:32;;;;;;;;;;;;;;;;;;10273666;28;19917;-67
2021/07/04 12:15:31;;;;;;;;;;;;;;;;;;10283223;28;20452;-66
2021/07/04 12:20:29;;;;;;;;;;;;;;;;;;10251176;28;20613;-68
2021/07/04 12:25:27;;;;;;;;;;;;;;;;;;10286463;28;19913;-67
2021/07/04 12:30:24;;;;;;;;;;;;;;;;;;10262303;28;19913;-66
2021/07/04 12:35:21;;;;;;;;;;;;;;;;;;10296805;28;19923;-66
2021/07/04 12:40:18;;;;;;;;;;;;;;;;;;10275165;28;19920;-66
2021/07/04 12:45:16;;;;;;;;;;;;;;;;;;10294179;28;19913;-67
2021/07/04 12:50:13;;;;;;;;;;;;;;;;;;10274377;28;19953;-66
2021/07/04 12:55:10;;;;;;;;;;;;;;;;;;10283580;28;19913;-67
2021/07/04 13:00:08;;;;;;;;;;;;;;;;;;10290097;28;19913;-66
2021/07/04 13:05:05;;;;;;;;;;;;;;;;;;10293406;28;19912;-67
2021/07/04 13:10:03;;;;;;;;;;;;;;;;;;10282967;28;20006;-66
2021/07/04 13:15:02;;;;;;;;;;;;;;;;;;10291204;28;19936;-66
2021/07/04 13:20:00;;;;;;;;;;;;;;;;;;10283507;28;19913;-67
2021/07/04 13:24:57;;;;;;;;;;;;;;;;;;10256937;28;19921;-67
2021/07/04 13:29:55;;;;;;;;;;;;;;;;;;10278807;28;19920;-67
2021/07/04 13:34:52;;;;;;;;;;;;;;;;;;10287896;28;20244;-65
2021/07/04 13:39:49;;;;;;;;;;;;;;;;;;10291110;28;20067;-69
2021/07/04 13:44:46;;;;;;;;;;;;;;;;;;10291829;28;19924;-71
2021/07/04 13:49:44;;;;;;;;;;;;;;;;;;10264124;28;20415;-67
2021/07/04 13:54:42;;;;;;;;;;;;;;;;;;10279473;28;20387;-65
2021/07/04 13:59:39;;;;;;;;;;;;;;;;;;10287983;28;19912;-66
2021/07/04 14:04:37;;;;;;;;;;;;;;;;;;10290929;28;19912;-66
2021/07/04 14:09:36;;;;;;;;;;;;;;;;;;10278812;28;20397;-67
2021/07/04 14:14:33;;;;;;;;;;;;;;;;;;10268144;28;19932;-66
2021/07/04 14:19:30;;;;;;;;;;;;;;;;;;10272038;28;19935;-66
2021/07/04 14:24:28;;;;;;;;;;;;;;;;;;10286637;28;19922;-66
2021/07/04 14:29:25;;;;;;;;;;;;;;;;;;10267017;28;19913;-67
2021/07/04 14:34:22;;;;;;;;;;;;;;;;;;10265077;28;20424;-67
2021/07/04 14:39:19;;;;;;;;;;;;;;;;;;10268020;28;19928;-66
2021/07/04 14:44:17;;;;;;;;;;;;;;;;;;10269741;28;19917;-68
2021/07/04 14:49:14;;;;;;;;;;;;;;;;;;10282713;28;19924;-66
2021/07/04 14:54:11;;;;;;;;;;;;;;;;;;10265775;28;19917;-67
2021/07/04 14:59:09;;;;;;;;;;;;;;;;;;10284370;28;19917;-68
2021/07/04 15:04:07;;;;;;;;;;;;;;;;;;10272170;28;19921;-68
2021/07/04 15:09:05;;;;;;;;;;;;;;;;;;10282759;28;20024;-67
2021/07/04 15:14:02;;;;;;;;;;;;;;;;;;10276063;28;20209;-66
2021/07/04 15:19:00;;;;;;;;;;;;;;;;;;10284416;28;19988;-67
2021/07/04 15:23:57;;;;;;;;;;;;;;;;;;10286259;28;19913;-66
2021/07/04 15:28:57;;;;;;;;;;;;;;;;;;10298533;28;20298;-71
2021/07/04 15:33:58;;;;;;;;;;;;;;;;;;10259077;28;19964;-66
2021/07/04 15:38:55;;;;;;;;;;;;;;;;;;10287177;28;19963;-64
2021/07/04 15:43:52;;;;;;;;;;;;;;;;;;10296038;28;20396;-65
2021/07/04 15:48:50;;;;;;;;;;;;;;;;;;10275366;28;19913;-66
2021/07/04 15:53:47;;;;;;;;;;;;;;;;;;10267414;28;19918;-66
2021/07/04 15:58:44;;;;;;;;;;;;;;;;;;10296203;28;20370;-68
2021/07/04 16:03:41;;;;;;;;;;;;;;;;;;10253155;28;20275;-70
2021/07/04 16:08:39;;;;;;;;;;;;;;;;;;10297670;28;19924;-65
2021/07/04 16:13:36;;;;;;;;;;;;;;;;;;10285464;28;19917;-66
2021/07/04 16:18:33;;;;;;;;;;;;;;;;;;10277769;28;19921;-65
2021/07/04 16:23:30;;;;;;;;;;;;;;;;;;10297709;28;19913;-65
2021/07/04 16:28:28;;;;;;;;;;;;;;;;;;10295487;28;20007;-66
2021/07/04 16:33:25;;;;;;;;;;;;;;;;;;10289201;28;19924;-66
2021/07/04 16:38:22;;;;;;;;;;;;;;;;;;10273843;28;19916;-65
2021/07/04 16:43:20;;;;;;;;;;;;;;;;;;10274267;28;19920;-66
2021/07/04 16:48:17;;;;;;;;;;;;;;;;;;10291131;28;19917;-66
2021/07/04 16:53:14;;;;;;;;;;;;;;;;;;10285371;28;19916;-65
2021/07/04 16:58:11;;;;;;;;;;;;;;;;;;10267525;28;19913;-65
2021/07/04 17:03:09;;;;;;;;;;;;;;;;;;10265912;28;19917;-67
2021/07/04 17:08:06;;;;;;;;;;;;;;;;;;10295846;28;19909;-68
2021/07/04 17:13:03;;;;;;;;;;;;;;;;;;10277000;28;20007;-67
2021/07/04 17:18:01;;;;;;;;;;;;;;;;;;10293723;28;19917;-64
2021/07/04 17:22:58;;;;;;;;;;;;;;;;;;10294984;28;19917;-67
2021/07/04 17:27:55;;;;;;;;;;;;;;;;;;10278224;28;20301;-68
2021/07/04 17:32:53;;;;;;;;;;;;;;;;;;10289545;28;19929;-67
2021/07/04 17:37:50;;;;;;;;;;;;;;;;;;10290810;28;20023;-71
2021/07/04 17:42:47;;;;;;;;;;;;;;;;;;10276832;28;19952;-67
2021/07/04 17:47:45;;;;;;;;;;;;;;;;;;10261535;28;19917;-70
2021/07/04 17:52:42;;;;;;;;;;;;;;;;;;10266116;28;20040;-71
2021/07/04 17:57:43;;;;;;;;;;;;;;;;;;10262816;28;20358;-65
2021/07/04 18:02:41;;;;;;;;;;;;;;;;;;10284240;28;19959;-67
2021/07/04 18:07:38;;;;;;;;;;;;;;;;;;10284667;28;19961;-67
2021/07/04 18:12:35;;;;;;;;;;;;;;;;;;10286582;28;19936;-66
2021/07/04 18:17:33;;;;;;;;;;;;;;;;;;10287245;28;19913;-67
2021/07/04 18:22:30;;;;;;;;;;;;;;;;;;10287728;28;20409;-66
2021/07/04 18:27:27;;;;;;;;;;;;;;;;;;10272656;28;19925;-66
2021/07/04 18:32:26;;;;;;;;;;;;;;;;;;10275781;28;19928;-64
2021/07/04 18:37:24;;;;;;;;;;;;;;;;;;10269073;28;19968;-66
2021/07/04 18:42:21;;;;;;;;;;;;;;;;;;10272536;28;19975;-66
2021/07/04 18:47:19;;;;;;;;;;;;;;;;;;10286541;28;19920;-68
2021/07/04 18:52:16;;;;;;;;;;;;;;;;;;10288178;28;19917;-67
2021/07/04 18:57:32;;;;;;;;;;;;;;;;;;10270935;28;19917;-65
2021/07/04 19:02:29;;;;;;;;;;;;;;;;;;10291059;28;19917;-64
2021/07/04 19:07:26;;;;;;;;;;;;;;;;;;10279119;28;19916;-63
2021/07/04 19:12:24;;;;;;;;;;;;;;;;;;10286354;28;19979;-69
2021/07/04 19:17:21;;;;;;;;;;;;;;;;;;10288048;28;20012;-64
2021/07/04 19:22:20;;;;;;;;;;;;;;;;;;10267337;28;20020;-64
2021/07/04 19:27:17;;;;;;;;;;;;;;;;;;10282593;28;19988;-67
2021/07/04 19:32:16;;;;;;;;;;;;;;;;;;10280227;28;19924;-65
2021/07/04 19:37:13;;;;;;;;;;;;;;;;;;10284586;28;20016;-66
2021/07/04 19:42:12;;;;;;;;;;;;;;;;;;10291292;28;20279;-64
2021/07/04 19:47:11;;;;;;;;;;;;;;;;;;10284855;28;19955;-67
2021/07/04 19:52:08;;;;;;;;;;;;;;;;;;10282350;28;20371;-66
2021/07/04 19:57:10;;;;;;;;;;;;;;;;;;10271646;28;19913;-64
2021/07/04 20:02:08;;;;;;;;;;;;;;;;;;10290980;28;19959;-64
2021/07/04 20:07:05;;;;;;;;;;;;;;;;;;10293974;28;20256;-64
2021/07/04 20:12:02;;;;;;;;;;;;;;;;;;10291268;28;20173;-64
2021/07/04 20:17:00;;;;;;;;;;;;;;;;;;10290529;28;21102;-63
2021/07/04 20:21:57;;;;;;;;;;;;;;;;;;10283642;28;20446;-64
2021/07/04 20:26:54;;;;;;;;;;;;;;;;;;10294575;28;20457;-63
2021/07/04 20:31:52;;;;;;;;;;;;;;;;;;10266177;28;19923;-64
2021/07/04 20:36:49;;;;;;;;;;;;;;;;;;10281254;28;19990;-64
2021/07/04 20:41:46;;;;;;;;;;;;;;;;;;10270065;28;19913;-64
2021/07/04 20:46:44;;;;;;;;;;;;;;;;;;10286038;28;19916;-64
2021/07/04 20:51:42;;;;;;;;;;;;;;;;;;10273989;28;19921;-65
2021/07/04 20:56:40;;;;;;;;;;;;;;;;;;10287893;28;19913;-64
2021/07/04 21:01:37;;;;;;;;;;;;;;;;;;10262966;28;19913;-64
2021/07/04 21:06:34;;;;;;;;;;;;;;;;;;10281440;28;20367;-64
2021/07/04 21:11:31;;;;;;;;;;;;;;;;;;10289574;28;19921;-65
2021/07/04 21:16:29;;;;;;;;;;;;;;;;;;10265981;28;19920;-63
2021/07/04 21:21:26;;;;;;;;;;;;;;;;;;10298057;28;19967;-64
2021/07/04 21:26:23;;;;;;;;;;;;;;;;;;10287571;28;19917;-63
2021/07/04 21:31:21;;;;;;;;;;;;;;;;;;10289411;28;19917;-64
2021/07/04 21:36:18;;;;;;;;;;;;;;;;;;10269136;28;19917;-64
2021/07/04 21:41:15;;;;;;;;;;;;;;;;;;10281905;28;19920;-65
2021/07/04 21:46:13;;;;;;;;;;;;;;;;;;10287753;28;20568;-63
2021/07/04 21:51:10;;;;;;;;;;;;;;;;;;10263623;28;20051;-64
2021/07/04 21:56:07;;;;;;;;;;;;;;;;;;10289722;28;19982;-63
2021/07/04 22:01:04;;;;;;;;;;;;;;;;;;10293481;28;20387;-65
2021/07/04 22:06:02;;;;;;;;;;;;;;;;;;10289795;28;20398;-64
2021/07/04 22:11:00;;;;;;;;;;;;;;;;;;10288941;28;20071;-64
2021/07/04 22:15:57;;;;;;;;;;;;;;;;;;10289974;28;19947;-65
2021/07/04 22:20:55;;;;;;;;;;;;;;;;;;10289453;28;20017;-63
2021/07/04 22:25:52;;;;;;;;;;;;;;;;;;10275540;28;19913;-64
2021/07/04 22:30:49;;;;;;;;;;;;;;;;;;10293283;28;19913;-63
2021/07/04 22:35:47;;;;;;;;;;;;;;;;;;10272504;28;20671;-65
2021/07/04 22:40:44;;;;;;;;;;;;;;;;;;10282399;28;19991;-63
2021/07/04 22:45:41;;;;;;;;;;;;;;;;;;10282904;28;20312;-63
2021/07/04 22:50:39;;;;;;;;;;;;;;;;;;10265711;28;20322;-64
2021/07/04 22:55:36;;;;;;;;;;;;;;;;;;10285427;28;19913;-63
2021/07/04 23:00:34;;;;;;;;;;;;;;;;;;10279943;28;19945;-63
2021/07/04 23:05:31;;;;;;;;;;;;;;;;;;10266105;28;19999;-62
2021/07/04 23:10:28;;;;;;;;;;;;;;;;;;10269274;28;20008;-63
2021/07/04 23:15:25;;;;;;;;;;;;;;;;;;10273483;28;20648;-62
2021/07/04 23:20:23;;;;;;;;;;;;;;;;;;10265328;28;19913;-61
2021/07/04 23:25:20;;;;;;;;;;;;;;;;;;10276072;28;19992;-62
2021/07/04 23:30:18;;;;;;;;;;;;;;;;;;10249553;28;20438;-62
2021/07/04 23:35:15;;;;;;;;;;;;;;;;;;10275446;28;20028;-63
2021/07/04 23:40:12;;;;;;;;;;;;;;;;;;10273998;28;19929;-62
2021/07/04 23:45:10;;;;;;;;;;;;;;;;;;10269643;28;19924;-62
2021/07/04 23:50:07;;;;;;;;;;;;;;;;;;10289101;28;20123;-61
2021/07/04 23:55:04;;;;;;;;;;;;;;;;;;10273756;28;19921;-64
